createdAt,value
2017-10-04T00:01:06.712Z,102341.51
2017-10-04T00:03:35.142Z,102333.86
2017-10-04T00:06:03.454Z,102330.66
2017-10-04T00:08:31.762Z,102334.37
2017-10-04T00:11:00.082Z,102330.53
2017-10-04T00:13:28.408Z,102314.06
2017-10-04T00:15:56.715Z,102320.79
2017-10-04T00:18:25.099Z,102313.23
2017-10-04T00:20:53.422Z,102300.30
2017-10-04T00:23:22.584Z,102306.70
2017-10-04T00:25:50.883Z,102311.25
2017-10-04T00:28:19.207Z,102315.59
2017-10-04T00:30:47.513Z,102313.58
2017-10-04T00:33:15.810Z,102313.16
2017-10-04T00:35:44.128Z,102309.41
2017-10-04T00:38:13.190Z,102306.27
2017-10-04T00:40:41.520Z,102308.73
2017-10-04T00:43:10.608Z,102303.97
2017-10-04T00:45:39.674Z,102312.67
2017-10-04T00:48:07.996Z,102312.95
2017-10-04T00:50:37.156Z,102313.78
2017-10-04T00:53:05.455Z,102315.32
2017-10-04T00:55:33.766Z,102322.74
2017-10-04T00:58:02.075Z,102331.13
2017-10-04T01:00:30.516Z,102315.70
2017-10-04T01:02:59.575Z,102313.84
2017-10-04T01:05:27.905Z,102326.45
2017-10-04T01:07:56.967Z,102326.45
2017-10-04T01:10:25.259Z,102322.93
2017-10-04T01:12:53.550Z,102327.47
2017-10-04T01:15:22.648Z,102318.25
2017-10-04T01:17:51.724Z,102312.78
2017-10-04T01:20:20.026Z,102313.81
2017-10-04T01:22:48.386Z,102310.09
2017-10-04T01:25:16.677Z,102300.45
2017-10-04T01:27:44.985Z,102306.03
2017-10-04T01:30:14.061Z,102296.20
2017-10-04T01:32:42.664Z,102296.00
2017-10-04T01:35:11.759Z,102291.23
2017-10-04T01:37:40.883Z,102286.66
2017-10-04T01:40:09.223Z,102296.34
2017-10-04T01:42:37.511Z,102292.27
2017-10-04T01:45:05.824Z,102288.84
2017-10-04T01:47:34.134Z,102298.37
2017-10-04T01:50:02.444Z,102291.53
2017-10-04T01:52:30.737Z,102288.70
2017-10-04T01:54:59.189Z,102287.23
2017-10-04T01:57:27.525Z,102289.36
2017-10-04T01:59:55.839Z,102287.28
2017-10-04T02:02:24.164Z,102296.08
2017-10-04T02:04:52.593Z,102294.41
2017-10-04T02:07:20.885Z,102297.98
2017-10-04T02:09:49.203Z,102299.92
2017-10-04T02:12:17.573Z,102284.41
2017-10-04T02:14:45.903Z,102282.74
2017-10-04T02:17:14.227Z,102282.61
2017-10-04T02:19:42.533Z,102287.56
2017-10-04T02:22:10.819Z,102286.03
2017-10-04T02:24:39.901Z,102292.84
2017-10-04T02:27:08.216Z,102295.85
2017-10-04T02:29:37.288Z,102285.94
2017-10-04T02:32:05.741Z,102285.11
2017-10-04T02:34:34.041Z,102281.17
2017-10-04T02:37:02.401Z,102277.75
2017-10-04T02:39:31.423Z,102278.38
2017-10-04T02:41:59.705Z,102278.67
2017-10-04T02:44:28.785Z,102279.40
2017-10-04T02:46:57.137Z,102275.78
2017-10-04T02:49:25.435Z,102278.98
2017-10-04T02:51:53.721Z,102270.60
2017-10-04T02:54:22.054Z,102272.55
2017-10-04T02:56:51.161Z,102266.11
2017-10-04T02:59:20.222Z,102262.69
2017-10-04T03:01:48.545Z,102246.75
2017-10-04T03:04:16.839Z,102244.26
2017-10-04T03:06:45.139Z,102251.80
2017-10-04T03:09:13.458Z,102249.72
2017-10-04T03:11:41.803Z,102248.47
2017-10-04T03:14:10.101Z,102231.20
2017-10-04T03:16:38.488Z,102237.17
2017-10-04T03:19:06.799Z,102227.54
2017-10-04T03:21:35.884Z,102231.06
2017-10-04T03:24:04.191Z,102220.09
2017-10-04T03:26:32.490Z,102222.64
2017-10-04T03:29:00.822Z,102214.89
2017-10-04T03:31:29.139Z,102220.77
2017-10-04T03:33:57.475Z,102220.31
2017-10-04T03:36:25.853Z,102212.73
2017-10-04T03:38:54.191Z,102217.03
2017-10-04T03:41:22.527Z,102210.92
2017-10-04T03:43:50.840Z,102210.81
2017-10-04T03:46:19.911Z,102209.56
2017-10-04T03:48:48.223Z,102192.39
2017-10-04T03:51:16.545Z,102205.31
2017-10-04T03:53:44.859Z,102218.09
2017-10-04T03:56:13.223Z,102217.77
2017-10-04T03:58:41.525Z,102226.93
2017-10-04T04:01:10.591Z,102213.18
2017-10-04T04:03:38.962Z,102217.16
2017-10-04T04:06:07.263Z,102219.46
2017-10-04T04:08:35.582Z,102224.83
2017-10-04T04:11:04.674Z,102225.63
2017-10-04T04:13:33.742Z,102221.09
2017-10-04T04:16:02.043Z,102215.82
2017-10-04T04:18:30.397Z,102217.80
2017-10-04T04:20:58.792Z,102216.87
2017-10-04T04:23:27.082Z,102203.60
2017-10-04T04:25:55.468Z,102204.72
2017-10-04T04:28:24.530Z,102202.95
2017-10-04T04:30:52.834Z,102190.46
2017-10-04T04:33:21.126Z,102194.16
2017-10-04T04:35:49.549Z,102206.23
2017-10-04T04:38:35.652Z,102193.01
2017-10-04T04:41:03.961Z,102186.39
2017-10-04T04:43:32.282Z,102199.72
2017-10-04T04:46:00.634Z,102193.33
2017-10-04T04:48:28.946Z,102191.58
2017-10-04T04:50:57.268Z,102183.84
2017-10-04T04:53:25.558Z,102184.86
2017-10-04T04:55:53.896Z,102181.85
2017-10-04T04:58:22.199Z,102188.05
2017-10-04T05:00:50.506Z,102173.30
2017-10-04T05:03:18.822Z,102181.77
2017-10-04T05:05:47.874Z,102182.69
2017-10-04T05:08:16.174Z,102183.84
2017-10-04T05:10:44.704Z,102183.75
2017-10-04T05:13:13.007Z,102177.45
2017-10-04T05:15:41.338Z,102179.31
2017-10-04T05:18:09.639Z,102169.50
2017-10-04T05:20:38.770Z,102163.06
2017-10-04T05:23:07.081Z,102166.26
2017-10-04T05:25:35.395Z,102173.98
2017-10-04T05:28:03.715Z,102158.07
2017-10-04T05:30:32.020Z,102162.09
2017-10-04T05:33:00.324Z,102166.13
2017-10-04T05:35:29.444Z,102158.58
2017-10-04T05:37:57.769Z,102159.41
2017-10-04T05:40:26.094Z,102166.03
2017-10-04T05:42:55.158Z,102155.30
2017-10-04T05:45:23.459Z,102140.21
2017-10-04T05:47:51.769Z,102150.95
2017-10-04T05:50:20.982Z,102140.62
2017-10-04T05:52:49.290Z,102141.14
2017-10-04T05:55:17.582Z,102142.16
2017-10-04T05:57:45.892Z,102137.84
2017-10-04T06:00:14.996Z,102135.54
2017-10-04T06:02:44.225Z,102136.88
2017-10-04T06:05:12.532Z,102138.77
2017-10-04T06:07:40.832Z,102142.66
2017-10-04T06:10:09.144Z,102148.36
2017-10-04T06:12:38.240Z,102136.00
2017-10-04T06:15:07.342Z,102129.20
2017-10-04T06:17:36.413Z,102124.56
2017-10-04T06:20:04.737Z,102123.55
2017-10-04T06:22:33.049Z,102114.47
2017-10-04T06:25:01.380Z,102116.38
2017-10-04T06:27:30.478Z,102109.50
2017-10-04T06:29:59.638Z,102107.84
2017-10-04T06:32:27.967Z,102108.17
2017-10-04T06:34:57.088Z,102101.17
2017-10-04T06:37:26.190Z,102109.78
2017-10-04T06:39:54.518Z,102108.25
2017-10-04T06:42:22.820Z,102095.15
2017-10-04T06:44:51.894Z,102101.58
2017-10-04T06:47:20.264Z,102106.72
2017-10-04T06:49:48.596Z,102117.69
2017-10-04T06:52:16.916Z,102100.47
2017-10-04T06:54:45.210Z,102107.31
2017-10-04T06:57:13.528Z,102113.73
2017-10-04T06:59:42.638Z,102111.19
2017-10-04T07:02:10.946Z,102101.80
2017-10-04T07:04:39.257Z,102101.83
2017-10-04T07:07:07.580Z,102097.09
2017-10-04T07:09:35.885Z,102107.78
2017-10-04T07:12:04.178Z,102111.08
2017-10-04T07:14:32.475Z,102113.57
2017-10-04T07:17:00.788Z,102112.67
2017-10-04T07:19:29.862Z,102115.81
2017-10-04T07:21:58.184Z,102135.07
2017-10-04T07:24:26.484Z,102129.98
2017-10-04T07:26:54.795Z,102125.25
2017-10-04T07:29:23.128Z,102117.83
2017-10-04T07:31:51.430Z,102128.30
2017-10-04T07:34:19.754Z,102109.39
2017-10-04T07:36:48.124Z,102121.00
2017-10-04T07:39:16.422Z,102126.47
2017-10-04T07:41:44.726Z,102126.92
2017-10-04T07:44:13.804Z,102118.47
2017-10-04T07:46:42.104Z,102125.95
2017-10-04T07:49:11.179Z,102127.20
2017-10-04T07:51:39.475Z,102117.83
2017-10-04T07:54:08.593Z,102129.76
2017-10-04T07:56:36.901Z,102122.42
2017-10-04T07:59:05.177Z,102135.80
2017-10-04T08:01:33.488Z,102137.69
2017-10-04T08:04:01.822Z,102124.65
2017-10-04T08:06:30.112Z,102120.96
2017-10-04T08:08:58.420Z,102107.45
2017-10-04T08:11:26.806Z,102116.81
2017-10-04T08:13:55.178Z,102120.42
2017-10-04T08:16:23.470Z,102118.89
2017-10-04T08:18:53.376Z,102119.64
2017-10-04T08:21:21.702Z,102119.34
2017-10-04T08:23:50.791Z,102123.59
2017-10-04T08:26:19.112Z,102122.98
2017-10-04T08:28:47.427Z,102114.52
2017-10-04T08:31:15.853Z,102115.56
2017-10-04T08:33:44.937Z,102134.39
2017-10-04T08:36:13.259Z,102121.17
2017-10-04T08:38:41.570Z,102111.11
2017-10-04T08:41:09.861Z,102120.96
2017-10-04T08:43:38.200Z,102119.30
2017-10-04T08:46:06.510Z,102119.30
2017-10-04T08:48:38.500Z,102123.23
2017-10-04T08:51:06.792Z,102107.92
2017-10-04T08:53:35.094Z,102099.85
2017-10-04T08:56:03.429Z,102077.30
2017-10-04T08:58:31.731Z,102075.34
2017-10-04T09:01:00.869Z,102073.18
2017-10-04T09:03:29.179Z,102074.95
2017-10-04T09:06:07.171Z,102085.70
2017-10-04T09:08:35.453Z,102096.59
2017-10-04T09:11:03.749Z,102095.98
2017-10-04T09:13:32.060Z,102101.28
2017-10-04T09:16:00.365Z,102089.69
2017-10-04T09:18:28.662Z,102115.08
2017-10-04T09:20:56.951Z,102108.35
2017-10-04T09:23:25.252Z,102107.92
2017-10-04T09:25:53.549Z,102109.48
2017-10-04T09:28:21.852Z,102105.77
2017-10-04T09:30:50.912Z,102098.73
2017-10-04T09:33:19.215Z,102077.93
2017-10-04T09:35:47.503Z,102078.73
2017-10-04T09:38:16.572Z,102083.31
2017-10-04T09:40:44.891Z,102083.00
2017-10-04T09:43:13.970Z,102098.34
2017-10-04T09:45:43.063Z,102115.41
2017-10-04T09:48:11.377Z,102102.07
2017-10-04T09:50:39.675Z,102111.72
2017-10-04T09:53:07.964Z,102116.41
2017-10-04T09:55:36.259Z,102102.53
2017-10-04T09:58:04.553Z,102099.30
2017-10-04T10:00:32.905Z,102099.61
2017-10-04T10:03:01.203Z,102102.52
2017-10-04T10:05:30.280Z,102102.21
2017-10-04T10:07:58.585Z,102088.02
2017-10-04T10:10:26.928Z,102093.20
2017-10-04T10:12:55.233Z,102118.27
2017-10-04T10:15:23.564Z,102105.31
2017-10-04T10:17:51.857Z,102111.02
2017-10-04T10:20:20.928Z,102097.13
2017-10-04T10:22:49.217Z,102105.42
2017-10-04T10:25:17.537Z,102093.47
2017-10-04T10:27:45.851Z,102107.39
2017-10-04T10:30:14.155Z,102099.30
2017-10-04T10:32:42.447Z,102109.47
2017-10-04T10:35:10.757Z,102105.63
2017-10-04T10:37:39.155Z,102088.73
2017-10-04T10:40:07.458Z,102099.08
2017-10-04T10:42:35.769Z,102089.44
2017-10-04T10:45:04.077Z,102091.92
2017-10-04T10:47:32.464Z,102094.63
2017-10-04T10:50:00.774Z,102075.95
2017-10-04T10:52:29.177Z,102068.56
2017-10-04T10:54:57.485Z,102063.55
2017-10-04T10:57:25.781Z,102075.86
2017-10-04T10:59:54.900Z,102085.70
2017-10-04T11:02:23.193Z,102080.69
2017-10-04T11:04:51.570Z,102085.03
2017-10-04T11:07:20.044Z,102082.38
2017-10-04T11:09:48.349Z,102069.54
2017-10-04T11:12:16.657Z,102091.42
2017-10-04T11:14:44.977Z,102072.31
2017-10-04T11:17:14.055Z,102069.00
2017-10-04T11:19:43.193Z,102073.06
2017-10-04T11:22:11.506Z,102072.91
2017-10-04T11:24:39.854Z,102090.16
2017-10-04T11:27:08.139Z,102065.75
2017-10-04T11:29:36.446Z,102071.34
2017-10-04T11:32:04.759Z,102070.27
2017-10-04T11:34:33.066Z,102080.84
2017-10-04T11:37:01.402Z,102081.37
2017-10-04T11:39:29.728Z,102066.67
2017-10-04T11:41:58.050Z,102083.39
2017-10-04T11:44:26.346Z,102076.44
2017-10-04T11:46:54.840Z,102086.73
2017-10-04T11:49:23.140Z,102066.23
2017-10-04T11:51:52.231Z,102067.27
2017-10-04T11:54:20.603Z,102061.27
2017-10-04T11:56:48.897Z,102051.31
2017-10-04T11:59:17.196Z,102073.10
2017-10-04T12:01:46.349Z,102059.00
2017-10-04T12:04:14.656Z,102065.69
2017-10-04T12:06:42.966Z,102064.03
2017-10-04T12:09:11.302Z,102059.67
2017-10-04T12:11:39.617Z,102061.16
2017-10-04T12:14:08.701Z,102055.46
2017-10-04T12:16:37.790Z,102047.68
2017-10-04T12:19:06.887Z,102047.68
2017-10-04T12:21:35.215Z,102055.88
2017-10-04T12:24:03.512Z,102049.96
2017-10-04T12:26:31.876Z,102020.39
2017-10-04T12:29:00.178Z,102035.61
2017-10-04T12:31:28.498Z,102045.91
2017-10-04T12:33:56.812Z,102042.28
2017-10-04T12:36:25.107Z,102040.07
2017-10-04T12:38:53.438Z,102034.78
2017-10-04T12:41:21.731Z,102037.06
2017-10-04T12:43:50.800Z,102033.36
2017-10-04T12:46:19.127Z,102042.39
2017-10-04T12:48:47.432Z,102029.16
2017-10-04T12:51:15.806Z,102032.27
2017-10-04T12:53:44.103Z,102031.75
2017-10-04T12:56:12.438Z,102037.98
2017-10-04T12:58:41.506Z,102050.87
2017-10-04T13:01:09.869Z,102040.39
2017-10-04T13:03:38.203Z,102037.59
2017-10-04T13:06:07.313Z,102031.89
2017-10-04T13:08:35.632Z,102034.66
2017-10-04T13:11:03.924Z,102019.73
2017-10-04T13:13:32.264Z,102013.71
2017-10-04T13:16:00.580Z,102017.89
2017-10-04T13:18:28.894Z,102009.08
2017-10-04T13:20:57.240Z,102012.20
2017-10-04T13:23:25.554Z,102015.41
2017-10-04T13:25:53.861Z,102011.78
2017-10-04T13:28:22.963Z,101999.96
2017-10-04T13:30:51.261Z,101996.23
2017-10-04T13:33:19.569Z,102004.31
2017-10-04T13:35:47.890Z,102007.53
2017-10-04T13:38:16.973Z,102006.80
2017-10-04T13:40:45.294Z,102009.81
2017-10-04T13:43:13.599Z,102001.55
2017-10-04T13:45:41.905Z,102001.76
2017-10-04T13:48:10.203Z,102001.45
2017-10-04T13:50:38.531Z,102002.80
2017-10-04T13:53:06.854Z,102013.70
2017-10-04T13:55:35.907Z,102015.16
2017-10-04T13:58:04.200Z,102005.41
2017-10-04T14:00:32.581Z,102008.20
2017-10-04T14:03:01.051Z,102001.30
2017-10-04T14:05:29.356Z,101991.45
2017-10-04T14:07:57.734Z,101992.07
2017-10-04T14:10:26.030Z,102008.44
2017-10-04T14:12:54.331Z,101998.91
2017-10-04T14:15:23.408Z,101984.81
2017-10-04T14:17:51.752Z,101998.19
2017-10-04T14:20:20.045Z,101988.34
2017-10-04T14:22:49.145Z,101996.73
2017-10-04T14:25:17.462Z,101999.21
2017-10-04T14:27:45.792Z,101999.62
2017-10-04T14:30:14.082Z,101992.77
2017-10-04T14:32:42.400Z,101986.80
2017-10-04T14:35:10.698Z,101983.48
2017-10-04T14:37:38.995Z,101981.52
2017-10-04T14:40:08.092Z,101988.34
2017-10-04T14:42:37.176Z,101976.95
2017-10-04T14:45:05.555Z,101978.81
2017-10-04T14:47:33.910Z,101979.02
2017-10-04T14:50:02.221Z,101972.70
2017-10-04T14:52:30.657Z,101966.89
2017-10-04T14:54:58.968Z,101976.63
2017-10-04T14:57:27.272Z,101976.73
2017-10-04T14:59:55.568Z,101978.20
2017-10-04T15:02:24.638Z,101963.91
2017-10-04T15:04:52.938Z,101978.93
2017-10-04T15:07:22.054Z,101969.17
2017-10-04T15:09:50.656Z,101972.31
2017-10-04T15:12:19.052Z,101951.49
2017-10-04T15:14:47.347Z,101949.41
2017-10-04T15:17:15.642Z,101935.95
2017-10-04T15:19:43.956Z,101942.27
2017-10-04T15:22:13.024Z,101946.51
2017-10-04T15:24:41.318Z,101950.22
2017-10-04T15:27:09.614Z,101949.94
2017-10-04T15:29:38.690Z,101961.11
2017-10-04T15:32:07.037Z,101956.14
2017-10-04T15:34:35.330Z,101952.52
2017-10-04T15:37:03.788Z,101931.31
2017-10-04T15:39:32.088Z,101920.23
2017-10-04T15:42:00.388Z,101909.47
2017-10-04T15:44:28.690Z,101914.84
2017-10-04T15:46:57.010Z,101908.21
2017-10-04T15:49:25.303Z,101912.35
2017-10-04T15:51:53.669Z,101900.76
2017-10-04T15:54:22.122Z,101881.71
2017-10-04T15:56:51.186Z,101893.30
2017-10-04T15:59:19.494Z,101901.89
2017-10-04T16:01:47.797Z,101916.28
2017-10-04T16:04:16.941Z,101909.89
2017-10-04T16:06:45.233Z,101914.95
2017-10-04T16:09:13.541Z,101915.26
2017-10-04T16:11:41.990Z,101911.95
2017-10-04T16:14:10.352Z,101909.97
2017-10-04T16:16:38.645Z,101912.77
2017-10-04T16:19:06.943Z,101914.11
2017-10-04T16:21:35.270Z,101927.34
2017-10-04T16:24:03.584Z,101919.89
2017-10-04T16:26:31.942Z,101916.06
2017-10-04T16:29:00.278Z,101907.39
2017-10-04T16:31:28.575Z,101894.86
2017-10-04T16:33:56.862Z,101882.45
2017-10-04T16:36:25.939Z,101886.27
2017-10-04T16:38:54.241Z,101874.37
2017-10-04T16:41:23.405Z,101865.16
2017-10-04T16:43:51.769Z,101861.66
2017-10-04T16:46:20.072Z,101862.59
2017-10-04T16:48:48.369Z,101861.03
2017-10-04T16:51:16.691Z,101854.41
2017-10-04T16:53:44.988Z,101845.72
2017-10-04T16:56:13.298Z,101838.27
2017-10-04T16:58:41.613Z,101841.26
2017-10-04T17:01:10.671Z,101838.16
2017-10-04T17:03:38.983Z,101837.14
2017-10-04T17:06:08.053Z,101821.83
2017-10-04T17:08:36.387Z,101828.20
2017-10-04T17:11:04.706Z,101838.55
2017-10-04T17:13:33.034Z,101841.44
2017-10-04T17:16:02.100Z,101845.26
2017-10-04T17:18:30.398Z,101844.63
2017-10-04T17:20:58.743Z,101846.38
2017-10-04T17:23:27.070Z,101868.12
2017-10-04T17:28:23.823Z,101859.33
2017-10-04T17:30:52.152Z,101858.91
2017-10-04T17:33:20.591Z,101858.18
2017-10-04T17:35:48.947Z,101855.59
2017-10-04T17:38:17.335Z,101854.05
2017-10-04T17:40:45.613Z,101860.77
2017-10-04T17:43:13.953Z,101867.39
2017-10-04T17:45:42.260Z,101863.36
2017-10-04T17:48:10.575Z,101865.43
2017-10-04T17:50:38.872Z,101873.08
2017-10-04T17:53:08.020Z,101859.95
2017-10-04T17:55:36.309Z,101858.61
2017-10-04T17:58:04.734Z,101866.27
2017-10-04T18:00:33.795Z,101870.48
2017-10-04T18:03:02.115Z,101863.66
2017-10-04T18:05:31.542Z,101843.29
2017-10-04T18:07:59.917Z,101840.50
2017-10-04T18:10:29.049Z,101845.36
2017-10-04T18:12:57.452Z,101846.08
2017-10-04T18:15:25.749Z,101866.77
2017-10-04T18:17:54.076Z,101841.74
2017-10-04T18:20:22.393Z,101853.23
2017-10-04T18:22:50.722Z,101828.20
2017-10-04T18:25:19.039Z,101822.20
2017-10-04T18:27:47.335Z,101818.06
2017-10-04T18:30:15.693Z,101812.59
2017-10-04T18:32:43.989Z,101804.11
2017-10-04T18:35:12.295Z,101793.25
2017-10-04T18:37:40.623Z,101786.36
2017-10-04T18:40:08.912Z,101777.78
2017-10-04T18:42:37.390Z,101776.84
2017-10-04T18:45:05.736Z,101780.36
2017-10-04T18:47:34.801Z,101782.73
2017-10-04T18:50:03.103Z,101789.26
2017-10-04T18:52:31.418Z,101792.44
2017-10-04T18:54:59.751Z,101781.99
2017-10-04T18:57:28.098Z,101787.78
2017-10-04T18:59:56.450Z,101783.66
2017-10-04T19:02:25.577Z,101786.23
2017-10-04T19:04:53.872Z,101792.76
2017-10-04T19:07:22.176Z,101782.94
2017-10-04T19:09:51.316Z,101788.20
2017-10-04T19:12:20.397Z,101791.73
2017-10-04T19:14:48.749Z,101784.38
2017-10-04T19:17:17.047Z,101799.08
2017-10-04T19:19:45.360Z,101809.63
2017-10-04T19:22:14.501Z,101811.28
2017-10-04T19:24:42.819Z,101789.25
2017-10-04T19:27:11.968Z,101775.67
2017-10-04T19:29:40.266Z,101781.36
2017-10-04T19:32:08.557Z,101787.26
2017-10-04T19:34:36.895Z,101787.36
2017-10-04T19:37:05.190Z,101769.57
2017-10-04T19:39:33.499Z,101775.67
2017-10-04T19:42:01.794Z,101758.61
2017-10-04T19:44:30.119Z,101765.64
2017-10-04T19:46:58.427Z,101773.19
2017-10-04T19:49:26.730Z,101769.58
2017-10-04T19:51:55.044Z,101779.20
2017-10-04T19:54:24.132Z,101778.16
2017-10-04T19:56:52.476Z,101781.78
2017-10-04T19:59:20.781Z,101775.06
2017-10-04T20:01:49.089Z,101776.41
2017-10-04T20:04:18.181Z,101780.95
2017-10-04T20:06:47.271Z,101781.78
2017-10-04T20:09:16.361Z,101785.30
2017-10-04T20:11:45.459Z,101778.38
2017-10-04T20:14:13.767Z,101767.61
2017-10-04T20:16:42.840Z,101787.27
2017-10-04T20:19:11.147Z,101764.72
2017-10-04T20:21:40.204Z,101746.82
2017-10-04T20:24:08.513Z,101744.64
2017-10-04T20:26:37.644Z,101739.27
2017-10-04T20:29:06.121Z,101737.41
2017-10-04T20:31:34.429Z,101733.37
2017-10-04T20:34:03.597Z,101743.20
2017-10-04T20:36:31.908Z,101746.72
2017-10-04T20:39:00.216Z,101743.51
2017-10-04T20:41:28.555Z,101754.27
2017-10-04T20:43:56.853Z,101751.95
2017-10-04T20:46:25.284Z,101748.89
2017-10-04T20:48:53.599Z,101746.89
2017-10-04T20:51:21.932Z,101730.98
2017-10-04T20:53:50.260Z,101715.47
2017-10-04T20:56:18.566Z,101711.33
2017-10-04T20:58:46.960Z,101707.50
2017-10-04T21:01:15.243Z,101706.56
2017-10-04T21:03:43.542Z,101710.84
2017-10-04T21:06:12.591Z,101720.05
2017-10-04T21:08:40.940Z,101716.62
2017-10-04T21:11:10.020Z,101715.52
2017-10-04T21:13:38.332Z,101723.55
2017-10-04T21:16:06.656Z,101716.52
2017-10-04T21:18:35.009Z,101709.92
2017-10-04T21:21:04.066Z,101713.42
2017-10-04T21:23:32.358Z,101714.97
2017-10-04T21:26:01.619Z,101711.89
2017-10-04T21:28:29.944Z,101709.30
2017-10-04T21:30:59.009Z,101706.19
2017-10-04T21:33:27.349Z,101699.58
2017-10-04T21:35:55.648Z,101696.16
2017-10-04T21:38:24.000Z,101691.02
2017-10-04T21:40:52.337Z,101681.48
2017-10-04T21:43:20.636Z,101687.16
2017-10-04T21:45:48.944Z,101682.72
2017-10-04T21:48:17.361Z,101663.08
2017-10-04T21:50:45.652Z,101668.03
2017-10-04T21:53:14.133Z,101666.47
2017-10-04T21:55:42.466Z,101652.33
2017-10-04T21:58:10.806Z,101661.91
2017-10-04T22:00:39.136Z,101666.27
2017-10-04T22:03:07.439Z,101651.27
2017-10-04T22:05:35.741Z,101648.05
2017-10-04T22:08:04.154Z,101647.76
2017-10-04T22:10:32.522Z,101649.56
2017-10-04T22:13:00.843Z,101658.72
2017-10-04T22:15:29.186Z,101651.48
2017-10-04T22:17:57.479Z,101648.41
2017-10-04T22:20:25.776Z,101644.88
2017-10-04T22:22:54.888Z,101638.86
2017-10-04T22:25:23.205Z,101637.73
2017-10-04T22:27:51.560Z,101622.86
2017-10-04T22:30:19.857Z,101622.72
2017-10-04T22:32:48.310Z,101612.42
2017-10-04T22:35:17.376Z,101606.52
2017-10-04T22:37:45.690Z,101598.87
2017-10-04T22:40:14.752Z,101579.56
2017-10-04T22:42:43.057Z,101575.42
2017-10-04T22:45:12.112Z,101570.61
2017-10-04T22:47:40.428Z,101568.53
2017-10-04T22:50:08.736Z,101565.85
2017-10-04T22:52:37.072Z,101551.94
2017-10-04T22:55:05.405Z,101550.89
2017-10-04T22:57:33.708Z,101540.46
2017-10-04T23:00:02.008Z,101534.48
2017-10-04T23:02:30.308Z,101528.59
2017-10-04T23:04:58.616Z,101528.18
2017-10-04T23:07:26.946Z,101524.25
2017-10-04T23:09:55.251Z,101510.02
2017-10-04T23:12:23.558Z,101511.05
2017-10-04T23:14:51.874Z,101515.58
2017-10-04T23:17:20.206Z,101509.70
2017-10-04T23:19:49.270Z,101508.47
2017-10-04T23:22:17.592Z,101492.38
2017-10-04T23:24:46.701Z,101481.34
2017-10-04T23:27:14.998Z,101482.27
2017-10-04T23:29:43.288Z,101477.01
2017-10-04T23:32:11.622Z,101472.47
2017-10-04T23:34:40.676Z,101462.26
2017-10-04T23:37:08.985Z,101451.53
2017-10-04T23:39:37.307Z,101456.48
2017-10-04T23:42:05.605Z,101455.05
2017-10-04T23:44:33.947Z,101443.49
2017-10-04T23:47:03.007Z,101434.94
2017-10-04T23:49:31.309Z,101422.88
2017-10-04T23:51:59.617Z,101425.55
2017-10-04T23:54:28.782Z,101418.57
2017-10-04T23:56:57.086Z,101415.98
2017-10-04T23:59:26.174Z,101402.78
